Time;durP1;ratioP1;P1;durP2;ratioP2;P2;SDS_P1;SDS_P2;PMS_P1;PMS_P2;Temp;Humidity;BMP_temperature;BMP_pressure;BME280_temperature;BME280_humidity;BME280_pressure;Samples;Min_cycle;Max_cycle;Signal;HPM_P1;HPM_P2
2023/07/23 00:01:30;;;;;;;8.82;5.47;;;;;;;;;;6276188;22;20012;-70
2023/07/23 00:03:56;;;;;;;9.75;5.30;;;;;;;;;;6275617;22;20325;-70
2023/07/23 00:06:22;;;;;;;15.25;5.78;;;;;;;;;;6275529;22;20019;-70
2023/07/23 00:08:48;;;;;;;15.23;6.88;;;;;;;;;;6248368;22;20445;-70
2023/07/23 00:11:14;;;;;;;12.98;7.03;;;;;;;;;;6274389;22;20355;-70
2023/07/23 00:13:40;;;;;;;14.40;6.60;;;;;;;;;;6276175;22;20016;-70
2023/07/23 00:16:06;;;;;;;13.55;6.35;;;;;;;;;;6275767;22;20031;-66
2023/07/23 00:18:32;;;;;;;13.32;6.65;;;;;;;;;;6275969;22;20106;-70
2023/07/23 00:20:58;;;;;;;12.13;6.05;;;;;;;;;;6275494;22;20030;-67
2023/07/23 00:23:24;;;;;;;11.45;6.13;;;;;;;;;;6275220;22;20073;-68
2023/07/23 00:25:50;;;;;;;14.55;6.93;;;;;;;;;;6275306;22;20038;-69
2023/07/23 00:28:16;;;;;;;13.93;6.55;;;;;;;;;;6275739;22;20039;-70
2023/07/23 00:30:43;;;;;;;13.48;7.25;;;;;;;;;;6275613;22;20020;-71
2023/07/23 00:33:09;;;;;;;17.50;7.28;;;;;;;;;;6222968;22;20099;-74
2023/07/23 00:35:35;;;;;;;13.93;7.13;;;;;;;;;;6222865;22;20018;-74
2023/07/23 00:38:01;;;;;;;14.90;7.38;;;;;;;;;;6275038;22;20024;-73
2023/07/23 00:40:27;;;;;;;13.73;6.55;;;;;;;;;;6275239;22;20479;-73
2023/07/23 00:42:53;;;;;;;13.70;6.57;;;;;;;;;;6242758;23;20031;-75
2023/07/23 00:45:19;;;;;;;13.00;6.55;;;;;;;;;;6242867;23;20099;-77
2023/07/23 00:47:46;;;;;;;15.63;7.18;;;;;;;;;;6242989;23;20022;-76
2023/07/23 00:50:14;;;;;;;18.65;7.28;;;;;;;;;;6244759;22;20091;-71
2023/07/23 00:52:40;;;;;;;13.70;7.43;;;;;;;;;;6217527;23;20027;-78
2023/07/23 00:55:07;;;;;;;14.27;7.90;;;;;;;;;;6243325;23;20398;-79
2023/07/23 00:57:33;;;;;;;11.55;5.80;;;;;;;;;;6243220;23;20460;-75
2023/07/23 00:59:59;;;;;;;12.00;6.72;;;;;;;;;;6243212;23;20016;-75
2023/07/23 01:02:28;;;;;;;14.68;7.68;;;;;;;;;;6243001;23;20087;-78
2023/07/23 01:04:54;;;;;;;13.73;7.80;;;;;;;;;;6239075;23;20022;-75
2023/07/23 01:07:20;;;;;;;16.17;7.07;;;;;;;;;;6242584;23;20095;-79
2023/07/23 01:09:48;;;;;;;14.05;7.70;;;;;;;;;;6217396;23;20055;-79
2023/07/23 01:12:16;;;;;;;13.65;6.20;;;;;;;;;;6243136;23;20035;-75
2023/07/23 01:14:42;;;;;;;14.10;7.32;;;;;;;;;;6244494;22;20134;-79
2023/07/23 01:17:09;;;;;;;11.50;7.20;;;;;;;;;;6244206;23;20016;-77
2023/07/23 01:19:37;;;;;;;15.45;7.15;;;;;;;;;;6242344;23;20099;-79
2023/07/23 01:22:06;;;;;;;14.18;7.55;;;;;;;;;;6241873;23;20020;-78
2023/07/23 01:24:35;;;;;;;12.35;6.80;;;;;;;;;;6244315;23;20026;-75
2023/07/23 01:27:01;;;;;;;14.23;7.45;;;;;;;;;;6217421;23;20027;-76
2023/07/23 01:29:28;;;;;;;13.00;7.03;;;;;;;;;;6243040;23;20024;-75
2023/07/23 01:31:54;;;;;;;10.77;5.93;;;;;;;;;;6244431;23;20142;-80
2023/07/23 01:34:20;;;;;;;12.55;6.88;;;;;;;;;;6243888;23;20024;-71
2023/07/23 01:36:47;;;;;;;12.63;6.25;;;;;;;;;;6244124;23;20026;-74
2023/07/23 01:39:13;;;;;;;14.43;6.20;;;;;;;;;;6242116;23;20024;-75
2023/07/23 01:41:39;;;;;;;13.13;6.38;;;;;;;;;;6244241;23;20016;-75
2023/07/23 01:44:06;;;;;;;15.27;6.22;;;;;;;;;;6246081;23;20069;-76
2023/07/23 01:46:32;;;;;;;12.40;6.00;;;;;;;;;;6245258;23;20016;-75
2023/07/23 01:48:58;;;;;;;11.70;6.10;;;;;;;;;;6245223;23;20046;-70
2023/07/23 01:51:24;;;;;;;11.65;7.03;;;;;;;;;;6244761;23;20020;-76
2023/07/23 01:53:50;;;;;;;9.90;6.53;;;;;;;;;;6245630;23;20016;-77
2023/07/23 01:56:16;;;;;;;13.70;7.15;;;;;;;;;;6246275;23;20024;-76
2023/07/23 01:58:42;;;;;;;12.98;7.05;;;;;;;;;;6246791;23;20031;-76
2023/07/23 02:01:08;;;;;;;12.82;7.50;;;;;;;;;;6245787;23;20024;-77
2023/07/23 02:03:34;;;;;;;11.70;6.82;;;;;;;;;;6246538;23;20028;-77
2023/07/23 02:06:01;;;;;;;14.80;7.00;;;;;;;;;;6246242;23;20020;-76
2023/07/23 02:08:27;;;;;;;15.55;6.60;;;;;;;;;;6244207;23;20039;-74
2023/07/23 02:11:00;;;;;;;13.75;7.30;;;;;;;;;;6245829;23;20013;-76
2023/07/23 02:13:27;;;;;;;13.88;7.28;;;;;;;;;;6219688;23;20024;-76
2023/07/23 02:15:53;;;;;;;14.70;7.82;;;;;;;;;;6246579;23;20022;-75
2023/07/23 02:18:19;;;;;;;14.23;7.85;;;;;;;;;;6245792;23;20408;-76
2023/07/23 02:20:45;;;;;;;13.20;8.25;;;;;;;;;;6245132;23;20051;-77
2023/07/23 02:23:11;;;;;;;17.23;7.70;;;;;;;;;;6245566;23;20020;-74
2023/07/23 02:25:39;;;;;;;14.77;8.02;;;;;;;;;;6246529;23;20016;-74
2023/07/23 02:28:06;;;;;;;14.82;8.40;;;;;;;;;;6219607;23;20024;-74
2023/07/23 02:30:32;;;;;;;14.38;7.63;;;;;;;;;;6244864;23;20506;-73
2023/07/23 02:32:58;;;;;;;15.00;8.35;;;;;;;;;;6246018;23;20023;-65
2023/07/23 02:35:24;;;;;;;15.77;7.35;;;;;;;;;;6245779;23;20026;-71
2023/07/23 02:37:50;;;;;;;13.85;7.75;;;;;;;;;;6246284;23;20052;-73
2023/07/23 02:40:16;;;;;;;13.82;7.75;;;;;;;;;;6244356;23;20020;-71
2023/07/23 02:42:42;;;;;;;12.77;7.40;;;;;;;;;;6259428;22;20022;-72
2023/07/23 02:45:08;;;;;;;11.98;6.82;;;;;;;;;;6223721;22;20026;-71
2023/07/23 02:47:34;;;;;;;11.55;6.90;;;;;;;;;;6276910;22;20023;-72
2023/07/23 02:50:00;;;;;;;11.95;6.60;;;;;;;;;;6275680;22;20079;-72
2023/07/23 02:52:26;;;;;;;12.93;7.10;;;;;;;;;;6249269;22;20024;-74
2023/07/23 02:54:52;;;;;;;10.20;6.70;;;;;;;;;;6249612;22;20020;-73
2023/07/23 02:57:18;;;;;;;11.80;7.20;;;;;;;;;;6276443;22;20019;-73
2023/07/23 02:59:44;;;;;;;13.98;6.90;;;;;;;;;;6249533;22;20043;-74
2023/07/23 03:02:12;;;;;;;12.50;7.10;;;;;;;;;;6275985;22;20518;-73
2023/07/23 03:04:39;;;;;;;11.88;6.78;;;;;;;;;;6248878;22;20069;-72
2023/07/23 03:07:09;;;;;;;9.98;6.55;;;;;;;;;;6223366;22;20019;-76
2023/07/23 03:09:35;;;;;;;14.63;6.40;;;;;;;;;;6224377;22;20024;-74
2023/07/23 03:12:02;;;;;;;11.50;6.68;;;;;;;;;;6248437;22;20028;-72
2023/07/23 03:14:28;;;;;;;9.98;6.55;;;;;;;;;;6276582;22;20122;-72
2023/07/23 03:16:54;;;;;;;15.02;6.80;;;;;;;;;;6249181;22;20531;-77
2023/07/23 03:19:20;;;;;;;14.82;6.97;;;;;;;;;;6275413;22;20079;-75
2023/07/23 03:21:46;;;;;;;14.02;7.55;;;;;;;;;;6276321;22;20149;-74
2023/07/23 03:24:12;;;;;;;14.13;7.57;;;;;;;;;;6276004;22;20016;-76
2023/07/23 03:26:38;;;;;;;14.43;7.63;;;;;;;;;;6275813;22;20546;-79
2023/07/23 03:29:04;;;;;;;11.43;7.28;;;;;;;;;;6276191;22;20341;-79
2023/07/23 03:31:30;;;;;;;15.35;7.72;;;;;;;;;;6275310;22;20015;-73
2023/07/23 03:33:56;;;;;;;14.23;8.68;;;;;;;;;;6248944;22;20019;-78
2023/07/23 03:36:24;;;;;;;15.75;9.07;;;;;;;;;;6248189;22;20081;-77
2023/07/23 03:38:50;;;;;;;18.25;9.35;;;;;;;;;;6248830;22;20020;-73
2023/07/23 03:41:16;;;;;;;17.40;9.23;;;;;;;;;;6248911;22;20016;-78
2023/07/23 03:43:42;;;;;;;15.52;8.50;;;;;;;;;;6248885;22;20406;-77
2023/07/23 03:46:08;;;;;;;14.75;8.18;;;;;;;;;;6275765;22;20016;-73
2023/07/23 03:48:34;;;;;;;15.23;8.52;;;;;;;;;;6275005;22;20034;-78
2023/07/23 03:51:00;;;;;;;19.65;9.68;;;;;;;;;;6275826;22;20436;-77
2023/07/23 03:53:26;;;;;;;14.77;8.93;;;;;;;;;;6249074;22;20028;-76
2023/07/23 03:55:52;;;;;;;13.95;8.30;;;;;;;;;;6223877;22;20034;-77
2023/07/23 03:58:18;;;;;;;19.42;9.15;;;;;;;;;;6275249;22;20016;-78
2023/07/23 04:00:44;;;;;;;14.05;9.27;;;;;;;;;;6276289;22;20526;-77
2023/07/23 04:03:11;;;;;;;20.50;10.55;;;;;;;;;;6274720;22;20011;-77
2023/07/23 04:05:37;;;;;;;15.63;9.02;;;;;;;;;;6248558;22;20023;-78
2023/07/23 04:08:03;;;;;;;14.80;8.85;;;;;;;;;;6275495;22;20090;-75
2023/07/23 04:10:29;;;;;;;16.98;9.77;;;;;;;;;;6249051;22;20022;-78
2023/07/23 04:12:55;;;;;;;14.60;8.60;;;;;;;;;;6275669;22;20090;-74
2023/07/23 04:15:21;;;;;;;17.20;9.60;;;;;;;;;;6275198;22;20333;-78
2023/07/23 04:17:47;;;;;;;17.17;9.43;;;;;;;;;;6248421;22;20023;-73
2023/07/23 04:20:13;;;;;;;17.30;8.80;;;;;;;;;;6275400;22;20072;-77
2023/07/23 04:22:39;;;;;;;16.58;9.60;;;;;;;;;;6248432;22;20011;-78
2023/07/23 04:25:06;;;;;;;17.95;9.02;;;;;;;;;;6248166;22;20016;-77
2023/07/23 04:27:32;;;;;;;15.02;9.02;;;;;;;;;;6223431;22;20444;-73
2023/07/23 04:29:58;;;;;;;20.27;9.13;;;;;;;;;;6248243;22;20015;-62
2023/07/23 04:32:24;;;;;;;18.50;9.45;;;;;;;;;;6275453;22;20038;-78
2023/07/23 04:34:50;;;;;;;11.40;8.60;;;;;;;;;;6274415;22;20019;-73
2023/07/23 04:37:16;;;;;;;16.23;8.65;;;;;;;;;;6275062;22;20483;-77
2023/07/23 04:39:42;;;;;;;19.15;8.90;;;;;;;;;;6248561;22;20141;-74
2023/07/23 04:42:08;;;;;;;15.15;9.18;;;;;;;;;;6275425;22;20019;-76
2023/07/23 04:44:34;;;;;;;18.15;9.48;;;;;;;;;;6274984;22;20019;-76
2023/07/23 04:47:00;;;;;;;18.23;9.43;;;;;;;;;;6247556;22;20016;-77
2023/07/23 04:49:26;;;;;;;18.08;10.07;;;;;;;;;;6248181;22;20020;-77
2023/07/23 04:51:52;;;;;;;16.63;9.45;;;;;;;;;;6223279;22;20057;-77
2023/07/23 04:54:18;;;;;;;15.02;9.05;;;;;;;;;;6248547;22;20073;-78
2023/07/23 04:56:44;;;;;;;13.40;8.98;;;;;;;;;;6248599;22;20011;-77
2023/07/23 04:59:10;;;;;;;18.88;9.25;;;;;;;;;;6275277;22;20093;-77
2023/07/23 05:01:36;;;;;;;16.95;10.40;;;;;;;;;;6247996;22;20022;-77
2023/07/23 05:04:03;;;;;;;16.77;9.50;;;;;;;;;;6275430;22;20047;-77
2023/07/23 05:06:29;;;;;;;16.63;9.75;;;;;;;;;;6248551;22;20069;-78
2023/07/23 05:08:55;;;;;;;16.42;9.10;;;;;;;;;;6248456;22;20058;-75
2023/07/23 05:11:21;;;;;;;15.73;9.55;;;;;;;;;;6222826;22;20027;-77
2023/07/23 05:13:47;;;;;;;14.82;8.75;;;;;;;;;;6223015;22;20015;-76
2023/07/23 05:16:13;;;;;;;14.15;8.50;;;;;;;;;;6274723;22;20455;-77
2023/07/23 05:18:39;;;;;;;15.73;8.82;;;;;;;;;;6247985;22;20016;-77
2023/07/23 05:21:05;;;;;;;22.30;9.13;;;;;;;;;;6222702;22;20087;-73
2023/07/23 05:23:31;;;;;;;19.33;10.35;;;;;;;;;;6274940;22;20054;-78
2023/07/23 05:25:57;;;;;;;15.70;10.55;;;;;;;;;;6275251;22;20020;-75
2023/07/23 05:28:23;;;;;;;16.13;9.40;;;;;;;;;;6275755;22;20070;-76
2023/07/23 05:30:49;;;;;;;15.52;9.98;;;;;;;;;;6248073;22;20431;-76
2023/07/23 05:33:15;;;;;;;15.98;9.48;;;;;;;;;;6275131;22;20018;-76
2023/07/23 05:35:41;;;;;;;15.52;9.77;;;;;;;;;;6275058;22;20095;-76
2023/07/23 05:38:08;;;;;;;16.30;9.45;;;;;;;;;;6247482;22;20016;-74
2023/07/23 05:40:36;;;;;;;14.75;9.73;;;;;;;;;;6222075;22;20043;-76
2023/07/23 05:43:07;;;;;;;15.30;9.40;;;;;;;;;;6274809;22;20019;-73
2023/07/23 05:45:33;;;;;;;14.63;9.50;;;;;;;;;;6247784;22;20078;-73
2023/07/23 05:47:59;;;;;;;15.55;9.30;;;;;;;;;;6247489;22;20064;-75
2023/07/23 05:50:25;;;;;;;14.63;9.23;;;;;;;;;;6274468;22;20095;-75
2023/07/23 05:52:51;;;;;;;19.02;10.15;;;;;;;;;;6275355;22;20085;-78
2023/07/23 05:55:17;;;;;;;17.77;9.07;;;;;;;;;;6275019;22;20020;-76
2023/07/23 05:57:43;;;;;;;15.43;10.07;;;;;;;;;;6222885;22;20016;-77
2023/07/23 06:00:10;;;;;;;15.65;10.50;;;;;;;;;;6273780;22;20019;-76
2023/07/23 06:02:35;;;;;;;15.43;10.77;;;;;;;;;;6222886;22;20012;-76
2023/07/23 06:05:03;;;;;;;17.65;9.57;;;;;;;;;;6275455;22;20541;-75
2023/07/23 06:07:29;;;;;;;12.55;8.23;;;;;;;;;;6274969;22;20020;-76
2023/07/23 06:09:55;;;;;;;15.60;9.13;;;;;;;;;;6274689;22;20024;-76
2023/07/23 06:12:21;;;;;;;14.48;8.35;;;;;;;;;;6222511;22;20023;-80
2023/07/23 06:14:47;;;;;;;15.10;8.70;;;;;;;;;;6221870;22;20420;-76
2023/07/23 06:17:13;;;;;;;14.27;8.38;;;;;;;;;;6247835;22;20016;-77
2023/07/23 06:19:39;;;;;;;14.57;8.50;;;;;;;;;;6248069;22;20023;-73
2023/07/23 06:22:09;;;;;;;16.85;9.13;;;;;;;;;;6248635;22;20011;-77
2023/07/23 06:24:35;;;;;;;13.68;8.02;;;;;;;;;;6248376;22;20073;-79
2023/07/23 06:27:01;;;;;;;15.02;8.73;;;;;;;;;;6274712;22;20432;-80
2023/07/23 06:29:28;;;;;;;12.25;8.25;;;;;;;;;;6275725;22;20031;-79
2023/07/23 06:31:55;;;;;;;17.05;8.27;;;;;;;;;;6224554;22;20011;-77
2023/07/23 06:34:21;;;;;;;15.95;9.43;;;;;;;;;;6276497;22;20305;-78
2023/07/23 06:36:47;;;;;;;13.35;8.75;;;;;;;;;;6276655;22;20077;-77
2023/07/23 06:39:16;;;;;;;14.35;8.35;;;;;;;;;;6248970;22;20307;-78
2023/07/23 06:41:42;;;;;;;13.20;7.93;;;;;;;;;;6248766;22;20022;-74
2023/07/23 06:44:08;;;;;;;14.13;8.35;;;;;;;;;;6224348;22;20065;-76
2023/07/23 06:46:34;;;;;;;17.85;8.90;;;;;;;;;;6277020;22;20050;-75
2023/07/23 06:49:00;;;;;;;16.15;8.52;;;;;;;;;;6276717;22;20466;-74
2023/07/23 06:51:26;;;;;;;15.10;8.38;;;;;;;;;;6224712;22;20472;-76
2023/07/23 06:53:52;;;;;;;16.55;8.98;;;;;;;;;;6276936;22;20051;-76
2023/07/23 06:56:19;;;;;;;14.93;7.63;;;;;;;;;;6247582;22;20020;-76
2023/07/23 06:58:47;;;;;;;14.68;8.38;;;;;;;;;;6249512;22;20019;-75
2023/07/23 07:01:13;;;;;;;15.82;9.10;;;;;;;;;;6248775;22;20012;-74
2023/07/23 07:03:39;;;;;;;13.52;8.35;;;;;;;;;;6276489;22;20073;-75
2023/07/23 07:06:05;;;;;;;18.65;8.77;;;;;;;;;;6276369;22;20016;-74
2023/07/23 07:08:31;;;;;;;15.32;8.30;;;;;;;;;;6276439;22;20047;-75
2023/07/23 07:11:02;;;;;;;17.15;8.27;;;;;;;;;;6248816;22;20497;-73
2023/07/23 07:13:28;;;;;;;14.68;8.38;;;;;;;;;;6249828;22;20016;-75
2023/07/23 07:15:54;;;;;;;14.40;8.68;;;;;;;;;;6223821;22;20431;-76
2023/07/23 07:18:20;;;;;;;15.70;8.80;;;;;;;;;;6275719;22;20359;-74
2023/07/23 07:20:53;;;;;;;16.30;7.57;;;;;;;;;;6276589;22;20024;-75
2023/07/23 07:23:19;;;;;;;13.75;7.68;;;;;;;;;;6224067;22;20011;-74
2023/07/23 07:25:45;;;;;;;16.13;8.35;;;;;;;;;;6248433;22;20098;-70
2023/07/23 07:28:11;;;;;;;15.77;8.05;;;;;;;;;;6275293;22;20043;-75
2023/07/23 07:30:41;;;;;;;14.95;8.95;;;;;;;;;;6224296;22;20451;-70
2023/07/23 07:33:07;;;;;;;13.80;8.18;;;;;;;;;;6223393;22;20055;-69
2023/07/23 07:35:33;;;;;;;13.45;7.70;;;;;;;;;;6248887;22;20050;-72
2023/07/23 07:37:59;;;;;;;13.75;7.40;;;;;;;;;;6248886;22;20061;-69
2023/07/23 07:40:27;;;;;;;12.70;7.82;;;;;;;;;;6275031;22;20015;-74
2023/07/23 07:42:53;;;;;;;14.88;7.80;;;;;;;;;;6247748;22;20012;-72
2023/07/23 07:45:19;;;;;;;13.48;8.35;;;;;;;;;;6248563;22;20012;-77
2023/07/23 07:47:45;;;;;;;13.40;8.70;;;;;;;;;;6222982;22;20012;-77
2023/07/23 07:50:11;;;;;;;14.00;8.45;;;;;;;;;;6248156;22;20014;-75
2023/07/23 07:52:37;;;;;;;14.27;8.77;;;;;;;;;;6223696;22;20024;-74
2023/07/23 07:55:04;;;;;;;15.50;9.00;;;;;;;;;;6248261;22;20118;-75
2023/07/23 07:57:30;;;;;;;16.58;8.98;;;;;;;;;;6223396;22;20099;-73
2023/07/23 07:59:56;;;;;;;11.07;6.95;;;;;;;;;;6276062;22;20016;-75
2023/07/23 08:02:22;;;;;;;15.20;7.88;;;;;;;;;;6248652;22;20018;-75
2023/07/23 08:04:48;;;;;;;11.95;7.95;;;;;;;;;;6223690;22;20312;-76
2023/07/23 08:07:15;;;;;;;17.02;8.88;;;;;;;;;;6275315;22;20018;-74
2023/07/23 08:09:42;;;;;;;13.15;9.23;;;;;;;;;;6275182;22;20073;-74
2023/07/23 08:12:09;;;;;;;17.17;9.40;;;;;;;;;;6223281;22;20015;-73
2023/07/23 08:14:38;;;;;;;15.77;8.70;;;;;;;;;;6248521;22;20370;-75
2023/07/23 08:17:04;;;;;;;17.10;10.13;;;;;;;;;;6222903;22;20018;-75
2023/07/23 08:19:30;;;;;;;16.58;9.35;;;;;;;;;;6247249;22;20023;-75
2023/07/23 08:21:56;;;;;;;12.65;8.77;;;;;;;;;;6248737;22;20462;-73
2023/07/23 08:24:23;;;;;;;13.70;8.23;;;;;;;;;;6274655;22;20448;-73
2023/07/23 08:26:50;;;;;;;15.02;8.63;;;;;;;;;;6223098;22;20047;-75
2023/07/23 08:29:18;;;;;;;13.18;9.00;;;;;;;;;;6223276;22;20015;-74
2023/07/23 08:31:44;;;;;;;15.57;9.18;;;;;;;;;;6223274;22;20054;-73
2023/07/23 08:34:10;;;;;;;12.43;8.10;;;;;;;;;;6222991;22;20016;-73
2023/07/23 08:36:36;;;;;;;12.40;8.35;;;;;;;;;;6275409;22;20015;-73
2023/07/23 08:39:04;;;;;;;13.23;8.52;;;;;;;;;;6273397;22;20012;-71
2023/07/23 08:41:37;;;;;;;14.52;8.32;;;;;;;;;;6248451;22;20016;-70
2023/07/23 08:44:16;;;;;;;16.02;8.65;;;;;;;;;;6222087;22;20437;-69
2023/07/23 08:46:46;;;;;;;13.52;7.40;;;;;;;;;;6248118;22;20468;-68
2023/07/23 08:49:12;;;;;;;11.90;7.88;;;;;;;;;;6247952;22;20089;-68
2023/07/23 08:51:43;;;;;;;14.02;8.20;;;;;;;;;;6247359;22;20101;-70
2023/07/23 08:54:09;;;;;;;13.65;7.22;;;;;;;;;;6247575;22;20019;-70
2023/07/23 08:56:36;;;;;;;13.88;8.38;;;;;;;;;;6223258;22;20043;-70
2023/07/23 08:59:03;;;;;;;13.90;7.40;;;;;;;;;;6274994;22;20012;-69
2023/07/23 09:01:33;;;;;;;10.45;7.13;;;;;;;;;;6275409;22;20408;-72
2023/07/23 09:03:59;;;;;;;12.93;6.75;;;;;;;;;;6222280;22;20018;-69
2023/07/23 09:06:28;;;;;;;13.00;7.68;;;;;;;;;;6274922;22;20030;-70
2023/07/23 09:08:54;;;;;;;13.65;7.97;;;;;;;;;;6222343;22;20012;-69
2023/07/23 09:11:20;;;;;;;13.05;7.13;;;;;;;;;;6247910;22;20019;-68
2023/07/23 09:13:47;;;;;;;11.98;7.78;;;;;;;;;;6275078;22;20011;-68
2023/07/23 09:16:13;;;;;;;12.95;8.15;;;;;;;;;;6222229;22;20023;-69
2023/07/23 09:18:40;;;;;;;11.40;7.30;;;;;;;;;;6274889;22;20015;-69
2023/07/23 09:21:06;;;;;;;13.18;8.57;;;;;;;;;;6247935;22;20016;-71
2023/07/23 09:23:33;;;;;;;12.05;7.10;;;;;;;;;;6221792;22;20075;-70
2023/07/23 09:26:00;;;;;;;15.27;7.03;;;;;;;;;;6222658;22;20113;-68
2023/07/23 09:28:26;;;;;;;13.27;7.40;;;;;;;;;;6222479;22;20015;-69
2023/07/23 09:30:59;;;;;;;11.18;7.50;;;;;;;;;;6247571;22;20012;-70
2023/07/23 09:33:43;;;;;;;11.82;8.23;;;;;;;;;;6222258;22;20023;-68
2023/07/23 09:36:11;;;;;;;14.32;8.30;;;;;;;;;;6274240;22;20406;-70
2023/07/23 09:38:45;;;;;;;15.02;8.20;;;;;;;;;;6274462;22;20083;-69
2023/07/23 09:41:11;;;;;;;14.10;7.30;;;;;;;;;;6222154;22;20020;-72
2023/07/23 09:43:37;;;;;;;14.23;8.52;;;;;;;;;;6247673;22;20066;-69
2023/07/23 09:46:04;;;;;;;14.40;8.43;;;;;;;;;;6248316;22;20095;-70
2023/07/23 09:48:30;;;;;;;12.52;8.85;;;;;;;;;;6275052;22;20023;-73
2023/07/23 09:51:01;;;;;;;15.20;8.85;;;;;;;;;;6247552;22;20453;-75
2023/07/23 09:53:29;;;;;;;11.80;8.13;;;;;;;;;;6222449;22;20027;-73
2023/07/23 09:55:56;;;;;;;15.07;9.00;;;;;;;;;;6275333;22;20145;-73
2023/07/23 09:58:23;;;;;;;13.35;7.30;;;;;;;;;;6275055;22;20015;-70
2023/07/23 10:00:50;;;;;;;15.15;8.60;;;;;;;;;;6222585;22;20012;-73
2023/07/23 10:03:17;;;;;;;11.98;6.68;;;;;;;;;;6275276;22;20023;-69
2023/07/23 10:05:43;;;;;;;13.43;7.63;;;;;;;;;;6249624;22;20019;-70
2023/07/23 10:08:10;;;;;;;14.98;7.38;;;;;;;;;;6224032;22;20075;-72
2023/07/23 10:10:36;;;;;;;12.02;6.70;;;;;;;;;;6249569;22;20031;-72
2023/07/23 10:13:02;;;;;;;11.95;7.60;;;;;;;;;;6249433;22;20024;-72
2023/07/23 10:15:29;;;;;;;12.73;8.00;;;;;;;;;;6250361;22;20124;-73
2023/07/23 10:18:00;;;;;;;10.85;6.38;;;;;;;;;;6276578;22;20024;-73
2023/07/23 10:20:27;;;;;;;10.70;6.85;;;;;;;;;;6249503;22;20061;-67
2023/07/23 10:22:53;;;;;;;13.68;8.15;;;;;;;;;;6249360;22;20011;-68
2023/07/23 10:25:25;;;;;;;10.98;7.10;;;;;;;;;;6249678;22;20094;-72
2023/07/23 10:27:58;;;;;;;14.30;7.07;;;;;;;;;;6277003;22;20011;-67
2023/07/23 10:30:24;;;;;;;14.52;7.63;;;;;;;;;;6249909;22;20061;-69
2023/07/23 10:33:09;;;;;;;13.55;7.40;;;;;;;;;;6276530;22;20012;-70
2023/07/23 10:35:44;;;;;;;12.90;7.45;;;;;;;;;;6247804;22;20066;-69
2023/07/23 10:38:26;;;;;;;12.57;7.22;;;;;;;;;;6276122;22;20015;-70
2023/07/23 10:40:52;;;;;;;12.60;7.38;;;;;;;;;;6276719;22;20042;-69
2023/07/23 10:43:18;;;;;;;12.27;7.50;;;;;;;;;;6248867;22;20215;-68
2023/07/23 10:46:03;;;;;;;14.68;8.30;;;17.40;99.90;;;;;;6249807;22;20031;-70
2023/07/23 10:48:59;;;;;;;11.98;7.28;;;;;;;;;;6275976;22;20075;-70
2023/07/23 10:51:25;;;;;;;14.93;7.07;;;;;;;;;;6244265;22;20081;-68
2023/07/23 10:53:55;;;;;;;15.60;7.93;;;;;;;;;;6276316;22;20312;-70
2023/07/23 10:56:23;;;;;;;13.70;8.40;;;;;;;;;;6249292;22;20062;-70
2023/07/23 10:58:50;;;;;;;11.20;7.57;;;;;;;;;;6275872;22;20026;-70
2023/07/23 11:01:20;;;;;;;12.18;7.75;;;;;;;;;;6248788;22;20031;-70
2023/07/23 11:03:46;;;;;;;;;;;;;;;;;;6249256;22;20069;-71
2023/07/23 11:06:32;;;;;;;10.10;6.75;;;;;;;;;;6249054;22;19915;-70
2023/07/23 11:09:01;;;;;;;9.95;7.05;;;;;;;;;;6275734;22;20016;-67
2023/07/23 11:11:57;;;;;;;10.73;7.28;;;;;;;;;;6248544;22;20016;-71
2023/07/23 11:14:30;;;;;;;13.48;7.75;;;;;;;;;;6217480;22;20419;-68
2023/07/23 11:16:57;;;;;;;10.18;6.88;;;;;;;;;;6248962;22;20022;-68
2023/07/23 11:19:24;;;;;;;11.52;7.28;;;;;;;;;;6248618;22;20057;-70
2023/07/23 11:22:00;;;;;;;11.60;7.47;;;;;;;;;;6248847;22;20011;-70
2023/07/23 11:24:27;;;;;;;10.25;6.45;;;;;;;;;;6248957;22;20015;-70
2023/07/23 11:26:56;;;;;;;13.60;6.78;;;;;;;;;;6276139;22;20051;-71
2023/07/23 11:29:24;;;;;;;12.50;6.85;;;;;;;;;;6248853;22;20016;-70
2023/07/23 11:31:50;;;;;;;10.32;7.28;;;;;;;;;;6275395;22;20091;-69
2023/07/23 11:34:16;;;;;;;7.40;5.65;;;;;;;;;;6275928;22;20019;-67
2023/07/23 11:36:42;;;;;;;12.43;6.47;;;;;;;;;;6275969;22;20008;-67
2023/07/23 11:39:09;;;;;;;8.55;5.68;;;;;;;;;;6275828;22;20332;-67
2023/07/23 11:41:41;;;;;;;9.38;6.32;;;;;;;;;;6275692;22;20026;-67
2023/07/23 11:44:08;;;;;;;8.90;6.18;;;;;;;;;;6275197;22;20424;-67
2023/07/23 11:46:37;;;;;;;11.38;5.60;;;;;;;;;;6275401;22;20316;-67
2023/07/23 11:49:04;;;;;;;9.40;6.18;;;;;;;;;;6275866;22;20050;-71
2023/07/23 11:51:33;;;;;;;9.20;6.00;;;;;;;;;;6249029;22;20011;-71
2023/07/23 11:54:10;;;;;;;8.75;5.65;;;;;;;;;;6248099;22;20069;-70
2023/07/23 11:56:40;;;;;;;8.13;5.95;;;;;;;;;;6275402;22;20424;-67
2023/07/23 11:59:07;;;;;;;9.75;5.22;;;;;;;;;;6275404;22;20012;-71
2023/07/23 12:01:35;;;;;;;5.95;4.63;;;18.80;99.90;;;;;;6275585;22;20065;-70
2023/07/23 12:04:03;;;;;;;7.53;5.13;;;;;;;;;;6274018;22;20608;-70
2023/07/23 12:06:30;;;;;;;9.32;5.32;;;;;;;;;;6223337;22;20324;-68
2023/07/23 12:08:56;;;;;;;7.55;4.97;;;;;;;;;;6223443;22;20019;-67
2023/07/23 12:11:23;;;;;;;9.77;5.95;;;19.70;99.90;;;;;;6274527;22;20047;-69
2023/07/23 12:13:53;;;;;;;8.00;6.05;;;19.50;99.90;;;;;;6276046;22;20015;-67
2023/07/23 12:16:55;;;;;;;7.53;6.25;;;;;;;;;;6274981;22;20020;-68
2023/07/23 12:19:22;;;;;;;8.38;6.30;;;;;;;;;;6121245;23;20097;-72
2023/07/23 12:21:49;;;;;;;11.27;6.88;;;;;;;;;;6122136;23;20064;-78
2023/07/23 12:24:15;;;;;;;10.73;7.30;;;;;;;;;;6121322;23;20109;-81
2023/07/23 12:26:41;;;;;;;11.90;7.90;;;;;;;;;;6097503;23;20017;-81
2023/07/23 12:29:07;;;;;;;10.15;7.93;;;;;;;;;;6096804;23;20036;-77
2023/07/23 12:31:41;;;;;;;9.80;7.55;;;;;;;;;;6097237;23;20032;-78
2023/07/23 12:34:07;;;;;;;14.02;8.70;;;;;;;;;;6121729;23;20022;-78
2023/07/23 12:36:33;;;;;;;10.45;8.45;;;;;;;;;;6121731;23;20021;-74
2023/07/23 12:38:59;;;;;;;10.75;8.32;;;;;;;;;;6097269;23;20029;-76
2023/07/23 12:41:25;;;;;;;12.75;8.85;;;;;;;;;;6097578;23;20018;-74
2023/07/23 12:43:51;;;;;;;11.00;8.43;;;;;;;;;;6096678;23;20053;-74
2023/07/23 12:46:17;;;;;;;12.45;8.95;;;;;;;;;;6095297;23;20026;-75
2023/07/23 12:48:46;;;;;;;12.45;8.88;;;;;;;;;;6097141;23;20032;-77
2023/07/23 12:51:12;;;;;;;10.90;8.75;;;;;;;;;;6096856;23;20026;-76
2023/07/23 12:53:38;;;;;;;13.10;9.23;;;;;;;;;;6219458;22;20035;-75
2023/07/23 12:56:04;;;;;;;12.55;7.95;;;;;;;;;;6247512;22;20050;-78
2023/07/23 12:58:30;;;;;;;11.18;7.72;;;;;;;;;;6274788;22;20459;-75
2023/07/23 13:00:56;;;;;;;11.38;7.70;;;;;;;;;;6247246;22;20027;-76
2023/07/23 13:03:22;;;;;;;10.73;7.70;;;;;;;;;;6274949;22;20022;-74
2023/07/23 13:05:48;;;;;;;12.02;8.40;;;;;;;;;;6273915;22;20285;-77
2023/07/23 13:08:14;;;;;;;9.68;7.22;;;;;;;;;;6274396;22;20090;-74
2023/07/23 13:10:40;;;;;;;11.25;7.40;;;;;;;;;;6274778;22;20099;-76
2023/07/23 13:13:06;;;;;;;9.68;6.70;;;;;;;;;;6274971;22;20188;-74
2023/07/23 13:15:32;;;;;;;11.25;6.68;;;;;;;;;;6273964;22;20027;-74
2023/07/23 13:17:58;;;;;;;8.13;6.38;;;;;;;;;;6222258;22;20022;-72
2023/07/23 13:20:25;;;;;;;9.07;6.25;;;;;;;;;;6275110;22;20038;-75
2023/07/23 13:22:51;;;;;;;9.88;6.15;;;;;;;;;;6274660;22;20016;-76
2023/07/23 13:25:17;;;;;;;10.88;5.50;;;;;;;;;;6273935;22;20067;-73
2023/07/23 13:27:42;;;;;;;6.85;5.05;;;20.60;99.90;;;;;;6274843;22;20020;-76
2023/07/23 13:30:08;;;;;;;8.60;5.72;;;20.50;99.90;;;;;;6274581;22;20248;-75
2023/07/23 13:32:34;;;;;;;7.30;5.05;;;;;;;;;;6247263;22;20344;-74
2023/07/23 13:35:00;;;;;;;7.90;4.68;;;;;;;;;;6246705;22;20020;-79
2023/07/23 13:37:26;;;;;;;8.93;4.95;;;;;;;;;;6274789;22;20042;-72
2023/07/23 13:39:52;;;;;;;6.40;4.45;;;;;;;;;;6248177;22;20019;-73
2023/07/23 13:42:20;;;;;;;9.48;4.35;;;21.60;99.90;;;;;;6246935;22;20020;-73
2023/07/23 13:44:46;;;;;;;8.93;4.50;;;;;;;;;;6221957;22;20062;-76
2023/07/23 13:47:12;;;;;;;6.05;3.80;;;;;;;;;;6274805;22;20049;-74
2023/07/23 13:49:38;;;;;;;7.13;4.00;;;21.80;99.90;;;;;;6247041;22;20034;-74
2023/07/23 13:52:05;;;;;;;5.15;3.78;;;21.60;99.90;;;;;;6222158;22;20019;-75
2023/07/23 13:54:31;;;;;;;7.13;4.30;;;;;;;;;;6275023;22;20015;-75
2023/07/23 13:56:57;;;;;;;7.88;4.57;;;;;;;;;;6273908;22;20122;-70
2023/07/23 13:59:41;;;;;;;7.53;4.05;;;21.70;99.90;;;;;;6274638;22;20023;-75
2023/07/23 14:02:07;;;;;;;7.13;4.50;;;;;;;;;;6274581;22;20027;-73
2023/07/23 14:04:33;;;;;;;6.30;4.50;;;;;;;;;;6274123;22;20057;-73
2023/07/23 14:06:59;;;;;;;7.60;4.30;;;;;;;;;;6247225;22;20015;-76
2023/07/23 14:09:25;;;;;;;6.82;4.05;;;;;;;;;;6274354;22;20093;-72
2023/07/23 14:11:51;;;;;;;6.93;4.15;;;;;;;;;;6274306;22;20011;-76
2023/07/23 14:14:17;;;;;;;7.75;3.50;;;22.20;99.90;;;;;;6274162;22;20023;-75
2023/07/23 14:16:42;;;;;;;5.88;3.45;;;22.40;99.90;;;;;;6246838;22;20073;-77
2023/07/23 14:19:08;;;;;;;7.25;3.60;;;;;;;;;;6247533;22;20015;-74
2023/07/23 14:21:34;;;;;;;8.60;3.90;;;;;;;;;;6274290;22;20063;-70
2023/07/23 14:24:01;;;;;;;8.75;3.78;;;;;;;;;;6222397;22;20023;-76
2023/07/23 14:26:26;;;;;;;6.70;3.53;;;22.40;99.90;;;;;;6246264;22;20028;-75